»·PEaware :: VVNG202 KNKX-KNKX

VVNG202 :: KNKX-KNKX

FLIGHT INFORMATION

Flight Status: Arrived
Operator: Unknown
More flights by this operator :: More flights under this callsign
Pilot: Bruce B. (6887)
Aircraft: GRUMMAN AERO F-14 TOMCAT
(F14)
More flights by this aircraft type
Origin: KNKX Miramar MCAS/Mitscher
United States
Destination: KNKX Miramar MCAS/Mitscher
United States
More flights between these airports :: More routes between these airports
Route: +SWOLF7 MOUSE
File this flight plan on PilotEdge
Remarks: SWOLF 7 departure MOUSE transition to W-291 for independent ops.
Altitude:
(Current/Filed)
2,000ft
Speed:
(Current/Filed)
250kts
Departed: 28-Oct-15 03:31 PM
Arrived: 28-Oct-15 04:28 PM
Distance/Time
Traveled:
1nm/0:56
Distance/Time
To Go:
Arrived

Flight Plot

Page will automatically refresh every two minutes.


Map Options




Map Legend


Flown Route
Filed Route
Departure Airport
Arrival Airport
Navaid (VOR, NDB)
Fix

Horizontal Profiles

Position Reports

Time Latitude Longitude Heading Altitude Ground
Speed
28-Oct-15 15:10 32.874776 -117.127409 214 484ft 0kts
28-Oct-15 15:11 32.874754 -117.127427 214 484ft 0kts
28-Oct-15 15:19 32.874656 -117.127532 203 484ft 0kts
28-Oct-15 15:20 32.874654 -117.127533 203 484ft 0kts
28-Oct-15 15:21 32.874652 -117.127534 203 484ft 0kts
28-Oct-15 15:22 32.874650 -117.127535 203 484ft 0kts
28-Oct-15 15:23 32.874648 -117.127536 203 484ft 0kts
28-Oct-15 15:24 32.874646 -117.127537 203 484ft 0kts
28-Oct-15 15:25 32.874644 -117.127538 203 484ft 0kts
28-Oct-15 15:26 32.874642 -117.127539 203 484ft 0kts
28-Oct-15 15:27 32.873657 -117.127669 168 484ft 0kts
28-Oct-15 15:28 32.872670 -117.127808 257 484ft 0kts
28-Oct-15 15:29 32.865082 -117.177102 278 2118ft 231kts
28-Oct-15 15:30 32.910226 -117.258923 314 2033ft 349kts
28-Oct-15 15:31 32.934101 -117.363582 240 1832ft 364kts
28-Oct-15 15:32 32.903093 -117.469284 268 1823ft 321kts
28-Oct-15 15:33 32.902787 -117.572778 268 1899ft 300kts
28-Oct-15 15:34 32.900654 -117.670080 268 1922ft 289kts
28-Oct-15 15:35 32.896029 -117.763897 265 2040ft 277kts
28-Oct-15 15:36 32.887959 -117.854145 261 2602ft 273kts
28-Oct-15 15:37 32.902893 -117.945551 298 4143ft 296kts
28-Oct-15 15:39 32.946235 -118.033054 301 4914ft 315kts
28-Oct-15 15:40 32.993692 -118.124715 310 5021ft 335kts
28-Oct-15 15:41 33.046900 -118.218681 299 5098ft 347kts
28-Oct-15 15:42 33.087908 -118.324282 292 5202ft 352kts
28-Oct-15 15:43 33.119031 -118.435868 288 5317ft 354kts
28-Oct-15 15:44 33.147063 -118.549065 286 5439ft 355kts
28-Oct-15 15:45 33.171738 -118.663646 287 5550ft 355kts
28-Oct-15 15:46 33.207163 -118.773088 292 5680ft 353kts
28-Oct-15 15:47 33.240544 -118.883902 290 5786ft 354kts
28-Oct-15 15:48 33.269567 -118.996459 287 5901ft 353kts
28-Oct-15 15:49 33.294135 -119.110417 284 6008ft 353kts
28-Oct-15 15:50 33.314217 -119.225654 282 6101ft 353kts
28-Oct-15 15:51 33.326684 -119.342378 275 5975ft 354kts
28-Oct-15 15:52 33.313213 -119.455353 225 5764ft 364kts
28-Oct-15 15:53 33.229308 -119.424834 111 5777ft 376kts
28-Oct-15 15:54 33.191074 -119.307665 103 5367ft 379kts
28-Oct-15 15:55 33.176673 -119.183301 93 4983ft 374kts
28-Oct-15 15:56 33.168284 -119.061192 91 4894ft 363kts
28-Oct-15 15:57 33.163631 -118.941647 89 4828ft 357kts
28-Oct-15 15:58 33.162469 -118.824666 87 4962ft 346kts
28-Oct-15 15:59 33.164038 -118.709777 85 4868ft 345kts
28-Oct-15 16:00 33.161537 -118.596348 90 5033ft 339kts
28-Oct-15 16:01 33.157468 -118.483103 90 5024ft 340kts
28-Oct-15 16:02 33.153093 -118.370540 91 5020ft 340kts
28-Oct-15 16:02 33.147628 -118.277798 92 4989ft 331kts
28-Oct-15 16:04 33.140258 -118.150480 90 4885ft 327kts
28-Oct-15 16:04 33.136044 -118.061120 90 5005ft 321kts
28-Oct-15 16:05 33.131588 -117.954450 90 5007ft 321kts
28-Oct-15 16:06 33.129511 -117.847608 91 4955ft 323kts
28-Oct-15 16:07 33.126282 -117.743603 90 5012ft 305kts
28-Oct-15 16:08 33.125005 -117.643766 88 5001ft 296kts
28-Oct-15 16:09 33.124928 -117.545678 88 5011ft 299kts
28-Oct-15 16:10 33.125580 -117.444805 88 5040ft 306kts
28-Oct-15 16:11 33.123708 -117.341807 91 4981ft 309kts
28-Oct-15 16:12 33.122389 -117.240639 87 5058ft 297kts
28-Oct-15 16:13 33.124005 -117.146031 88 5063ft 266kts
28-Oct-15 16:14 33.124537 -117.057067 87 5121ft 280kts
28-Oct-15 16:15 33.124542 -116.960346 89 5068ft 300kts
28-Oct-15 16:16 33.115859 -116.861156 123 5036ft 306kts
28-Oct-15 16:17 33.046009 -116.808417 151 5052ft 294kts
28-Oct-15 16:18 32.974777 -116.761598 151 5018ft 287kts
28-Oct-15 16:19 32.914410 -116.772892 272 5098ft 268kts
28-Oct-15 16:20 32.926045 -116.849905 280 5080ft 180kts
28-Oct-15 16:21 32.922722 -116.900747 256 3743ft 145kts
28-Oct-15 16:22 32.912455 -116.948121 252 2689ft 146kts
28-Oct-15 16:23 32.901391 -116.994207 256 2569ft 147kts
28-Oct-15 16:24 32.891384 -117.040436 258 1554ft 137kts
28-Oct-15 16:25 32.881861 -117.084403 258 762ft 133kts
28-Oct-15 16:26 32.872721 -117.127636 255 484ft 0kts

Navigation Log

Ident Type
Flight plan parsing failed, navigation log unavailable